Time;durP1;ratioP1;P1;durP2;ratioP2;P2;SDS_P1;SDS_P2;PMS_P1;PMS_P2;Temp;Humidity;BMP_temperature;BMP_pressure;BME280_temperature;BME280_humidity;BME280_pressure;Samples;Min_cycle;Max_cycle;Signal;HPM_P1;HPM_P2
2021/06/17 00:00:46;;;;;;;7.10;6.07;;;19.00;99.90;;;;;;5120714;28;20405;-81
2021/06/17 00:03:12;;;;;;;7.00;5.88;;;19.00;99.90;;;;;;5129048;28;20028;-80
2021/06/17 00:05:38;;;;;;;8.38;5.97;;;19.00;99.90;;;;;;5121500;28;20408;-79
2021/06/17 00:08:06;;;;;;;7.45;5.68;;;18.90;99.90;;;;;;5120215;28;20028;-80
2021/06/17 00:10:36;;;;;;;9.63;6.10;;;18.90;99.90;;;;;;5131172;28;20054;-80
2021/06/17 00:13:14;;;;;;;8.15;5.88;;;19.00;99.90;;;;;;5120739;28;20042;-80
2021/06/17 00:15:41;;;;;;;7.13;5.55;;;19.00;99.90;;;;;;5130588;28;20043;-80
2021/06/17 00:18:09;;;;;;;8.07;5.80;;;19.00;99.90;;;;;;5118701;28;20023;-80
2021/06/17 00:20:35;;;;;;;7.10;5.63;;;19.00;99.90;;;;;;5109940;28;20024;-80
2021/06/17 00:23:01;;;;;;;9.80;6.18;;;19.10;99.90;;;;;;5111964;28;20024;-81
2021/06/17 00:25:28;;;;;;;8.35;5.85;;;19.10;99.90;;;;;;5110198;28;20039;-81
2021/06/17 00:27:53;;;;;;;8.13;6.43;;;19.20;99.90;;;;;;5111010;28;20035;-81
2021/06/17 00:30:21;;;;;;;7.93;6.30;;;19.20;99.90;;;;;;5109632;28;20382;-82
2021/06/17 00:32:46;;;;;;;8.07;5.68;;;19.30;99.90;;;;;;5107432;28;20038;-81
2021/06/17 00:35:13;;;;;;;7.55;6.00;;;19.20;99.90;;;;;;5108580;28;20016;-83
2021/06/17 00:37:40;;;;;;;6.97;5.93;;;19.20;99.90;;;;;;5104706;28;20024;-82
2021/06/17 00:40:09;;;;;;;9.45;6.20;;;19.20;99.90;;;;;;5106849;28;20548;-82
2021/06/17 00:42:36;;;;;;;8.93;7.03;;;19.20;99.90;;;;;;5105038;28;20028;-83
2021/06/17 00:45:05;;;;;;;7.68;6.00;;;19.10;99.90;;;;;;5103855;28;20035;-83
2021/06/17 00:47:31;;;;;;;10.63;6.80;;;19.10;99.90;;;;;;5100293;28;20043;-82
2021/06/17 00:49:57;;;;;;;8.43;6.30;;;19.00;99.90;;;;;;5104167;28;20031;-82
2021/06/17 00:52:23;;;;;;;7.57;6.07;;;19.00;99.90;;;;;;5104827;28;20016;-83
2021/06/17 00:54:49;;;;;;;10.38;6.40;;;19.00;99.90;;;;;;5103643;28;20050;-82
2021/06/17 00:57:14;;;;;;;9.10;6.47;;;19.00;99.90;;;;;;5102605;28;20054;-82
2021/06/17 00:59:40;;;;;;;8.07;6.55;;;19.00;99.90;;;;;;5112167;28;20129;-81
2021/06/17 01:02:06;;;;;;;8.82;6.15;;;19.00;99.90;;;;;;5102807;28;20028;-81
2021/06/17 01:04:32;;;;;;;8.65;5.88;;;18.90;99.90;;;;;;5099171;28;20386;-81
2021/06/17 01:06:58;;;;;;;8.88;6.68;;;18.90;99.90;;;;;;5110349;28;20118;-81
2021/06/17 01:09:32;;;;;;;8.52;6.15;;;18.90;99.90;;;;;;5106911;28;20176;-81
2021/06/17 01:12:13;;;;;;;7.75;6.28;;;18.90;99.90;;;;;;5125256;27;20886;-81
2021/06/17 01:15:03;;;;;;;7.95;6.07;;;18.90;99.90;;;;;;5085144;28;20032;-83
2021/06/17 01:17:33;;;;;;;9.23;6.60;;;18.90;99.90;;;;;;5113166;28;20127;-82
2021/06/17 01:20:21;;;;;;;12.32;6.53;;;18.90;99.90;;;;;;5112173;28;20035;-81
2021/06/17 01:22:59;;;;;;;8.55;6.50;;;18.90;99.90;;;;;;5109411;28;20042;-83
2021/06/17 01:25:44;;;;;;;9.48;6.00;;;18.90;99.90;;;;;;5114626;28;20020;-83
2021/06/17 01:28:13;;;;;;;7.75;6.07;;;18.90;99.90;;;;;;5099077;28;20028;-83
2021/06/17 01:30:48;;;;;;;8.45;6.40;;;18.90;99.90;;;;;;5113710;28;20028;-83
2021/06/17 01:33:15;;;;;;;7.80;6.57;;;18.90;99.90;;;;;;5109093;28;20042;-83
2021/06/17 01:35:46;;;;;;;7.43;6.35;;;18.90;99.90;;;;;;5115139;28;20031;-84
2021/06/17 01:38:16;;;;;;;8.75;6.35;;;18.90;99.90;;;;;;5117175;27;20454;-83
2021/06/17 01:40:46;;;;;;;10.20;7.43;;;18.90;99.90;;;;;;5127317;28;20004;-82
2021/06/17 01:43:13;;;;;;;10.27;8.27;;;18.90;99.90;;;;;;5134291;28;20035;-84
2021/06/17 01:45:39;;;;;;;11.05;6.80;;;18.90;99.90;;;;;;5134639;28;20019;-81
2021/06/17 01:48:07;;;;;;;7.68;6.43;;;18.90;99.90;;;;;;5115394;28;20020;-84
2021/06/17 01:50:34;;;;;;;11.65;7.05;;;18.90;99.90;;;;;;5111419;27;20032;-83
2021/06/17 01:53:00;;;;;;;10.65;6.93;;;18.90;99.90;;;;;;5111722;27;20023;-83
2021/06/17 01:55:32;;;;;;;9.50;7.13;;;18.90;99.90;;;;;;5101755;28;20107;-84
2021/06/17 01:58:02;;;;;;;8.25;6.00;;;18.90;99.90;;;;;;5114552;28;20027;-84
2021/06/17 02:00:29;;;;;;;11.15;7.47;;;18.90;99.90;;;;;;5113415;28;20389;-75
2021/06/17 02:02:55;;;;;;;8.50;7.20;;;18.90;99.90;;;;;;5114269;28;20032;-72
2021/06/17 02:05:24;;;;;;;8.90;7.03;;;18.90;99.90;;;;;;5112559;28;20038;-72
2021/06/17 02:07:51;;;;;;;9.10;6.90;;;18.90;99.90;;;;;;5111454;28;20027;-72
2021/06/17 02:10:20;;;;;;;8.95;7.15;;;18.90;99.90;;;;;;5109207;28;20031;-73
2021/06/17 02:12:47;;;;;;;9.55;6.50;;;18.90;99.90;;;;;;5112476;28;20051;-73
2021/06/17 02:15:14;;;;;;;9.55;6.50;;;18.90;99.90;;;;;;5112186;28;20039;-72
2021/06/17 02:17:42;;;;;;;9.35;7.13;;;18.90;99.90;;;;;;5112197;28;20092;-72
2021/06/17 02:20:09;;;;;;;9.82;7.20;;;18.90;99.90;;;;;;5111690;28;20030;-71
2021/06/17 02:22:42;;;;;;;9.10;7.13;;;19.00;99.90;;;;;;5099221;28;20047;-71
2021/06/17 02:25:09;;;;;;;9.80;7.50;;;19.00;99.90;;;;;;5112715;28;20462;-71
2021/06/17 02:27:37;;;;;;;9.43;7.00;;;19.00;99.90;;;;;;5099849;28;20023;-71
2021/06/17 02:30:09;;;;;;;12.98;7.35;;;19.10;99.90;;;;;;5108695;28;20055;-74
2021/06/17 02:32:41;;;;;;;8.65;6.93;;;19.10;99.90;;;;;;5108727;28;20031;-71
2021/06/17 02:35:08;;;;;;;8.93;6.60;;;19.20;99.90;;;;;;5107952;28;20084;-71
2021/06/17 02:37:35;;;;;;;9.90;6.65;;;19.20;99.90;;;;;;5106136;28;20118;-71
2021/06/17 02:40:03;;;;;;;7.95;5.82;;;19.30;99.90;;;;;;5100483;28;20026;-71
2021/06/17 02:42:29;;;;;;;10.75;6.32;;;19.30;99.90;;;;;;5108008;28;20035;-71
2021/06/17 02:44:56;;;;;;;8.10;6.55;;;19.30;99.90;;;;;;5112111;28;20054;-71
2021/06/17 02:47:22;;;;;;;8.57;6.68;;;19.40;99.90;;;;;;5112701;28;20027;-71
2021/06/17 02:49:48;;;;;;;7.85;6.43;;;19.60;99.90;;;;;;5124537;28;20024;-71
2021/06/17 02:52:13;;;;;;;7.85;5.82;;;19.60;99.90;;;;;;5109618;28;20028;-71
2021/06/17 02:54:39;;;;;;;8.23;6.03;;;19.70;99.90;;;;;;5100424;28;20111;-72
2021/06/17 02:57:09;;;;;;;7.35;5.53;;;19.80;99.90;;;;;;5111237;28;20061;-72
2021/06/17 03:00:07;;;;;;;8.13;5.30;;;19.90;99.90;;;;;;5110233;28;20031;-72
2021/06/17 03:03:03;;;;;;;7.00;5.13;;;20.10;99.90;;;;;;5090085;28;20043;-72
2021/06/17 03:05:40;;;;;;;;;;;20.50;99.90;;;;;;5093611;28;20027;-74
2021/06/17 03:08:24;;;;;;;6.60;5.10;;;20.80;99.90;;;;;;5096574;28;19904;-75
2021/06/17 03:10:52;;;;;;;6.93;5.05;;;21.10;99.90;;;;;;5115860;28;20110;-74
2021/06/17 03:13:26;;;;;;;9.38;5.22;;;21.30;99.90;;;;;;5112321;28;20417;-74
2021/06/17 03:15:52;;;;;;;5.63;4.85;;;21.50;99.90;;;;;;5113098;28;20055;-74
2021/06/17 03:18:20;;;;;;;7.22;5.18;;;21.70;99.90;;;;;;5112454;28;20027;-74
2021/06/17 03:20:49;;;;;;;7.03;5.30;;;21.90;99.90;;;;;;5113435;27;20028;-74
2021/06/17 03:23:18;;;;;;;8.25;5.25;;;22.10;99.90;;;;;;5111383;28;20051;-73
2021/06/17 03:25:50;;;;;;;5.90;4.82;;;22.20;99.90;;;;;;5123046;27;20107;-73
2021/06/17 03:28:17;;;;;;;6.70;4.90;;;22.30;99.20;;;;;;5126336;28;20024;-73
2021/06/17 03:30:46;;;;;;;6.93;5.40;;;22.40;99.00;;;;;;5130165;28;20020;-79
2021/06/17 03:33:13;;;;;;;6.25;5.13;;;22.60;98.40;;;;;;5112691;28;20034;-73
2021/06/17 03:35:40;;;;;;;9.07;5.50;;;22.70;98.00;;;;;;5107375;28;20027;-76
2021/06/17 03:38:08;;;;;;;8.18;5.47;;;22.90;97.30;;;;;;5114806;28;20427;-75
2021/06/17 03:40:38;;;;;;;7.22;4.97;;;23.10;96.60;;;;;;5113561;28;20444;-74
2021/06/17 03:43:05;;;;;;;5.60;4.75;;;23.20;95.90;;;;;;5106614;28;20115;-76
2021/06/17 03:45:32;;;;;;;7.68;5.57;;;23.30;95.00;;;;;;5100903;28;20382;-75
2021/06/17 03:47:59;;;;;;;5.32;4.32;;;23.50;94.00;;;;;;5106904;28;20032;-76
2021/06/17 03:50:25;;;;;;;6.28;4.72;;;23.60;93.50;;;;;;5104577;28;20024;-76
2021/06/17 03:52:54;;;;;;;5.13;4.18;;;23.80;92.70;;;;;;5109416;28;20023;-75
2021/06/17 03:55:20;;;;;;;6.43;4.68;;;24.00;92.10;;;;;;5113554;28;20035;-77
2021/06/17 03:57:48;;;;;;;6.10;4.85;;;24.20;91.60;;;;;;5115979;28;20020;-83
2021/06/17 04:00:15;;;;;;;5.53;4.70;;;24.40;90.60;;;;;;5104364;28;20019;-80
2021/06/17 04:02:41;;;;;;;6.63;4.53;;;24.60;89.60;;;;;;5104820;28;20077;-80
2021/06/17 04:05:08;;;;;;;6.05;4.85;;;24.90;88.60;;;;;;5112710;28;20027;-81
2021/06/17 04:07:37;;;;;;;7.72;5.10;;;25.20;86.70;;;;;;5121512;27;20042;-81
2021/06/17 04:10:05;;;;;;;7.88;4.40;;;25.50;85.10;;;;;;5112792;28;20023;-81
2021/06/17 04:12:31;;;;;;;7.20;4.60;;;25.80;82.90;;;;;;5112730;28;20032;-80
2021/06/17 04:15:01;;;;;;;6.32;4.57;;;26.00;80.20;;;;;;5106988;28;20036;-79
2021/06/17 04:17:30;;;;;;;5.53;4.20;;;26.30;78.40;;;;;;5103242;28;20043;-75
2021/06/17 04:19:59;;;;;;;6.72;4.18;;;26.40;76.80;;;;;;5112203;28;20554;-81
2021/06/17 04:22:27;;;;;;;6.22;4.18;;;26.60;75.00;;;;;;5112840;28;20034;-81
2021/06/17 04:25:03;;;;;;;5.72;3.90;;;26.80;73.20;;;;;;5106780;28;20470;-78
2021/06/17 04:27:33;;;;;;;5.85;4.25;;;26.80;72.00;;;;;;5112614;28;20039;-78
2021/06/17 04:30:04;;;;;;;6.07;4.25;;;26.90;71.70;;;;;;5116123;28;20458;-78
2021/06/17 04:32:33;;;;;;;6.40;3.97;;;27.00;71.50;;;;;;5107480;28;20028;-84
2021/06/17 04:35:00;;;;;;;5.47;4.05;;;27.30;70.70;;;;;;5110195;28;20023;-87
2021/06/17 04:37:27;;;;;;;4.65;3.60;;;27.60;69.80;;;;;;5101852;28;20027;-89
2021/06/17 04:39:56;;;;;;;5.60;3.78;;;27.80;68.30;;;;;;5097148;28;20493;-76
2021/06/17 04:42:23;;;;;;;6.75;3.83;;;28.00;67.90;;;;;;5098603;28;20040;-75
2021/06/17 04:44:52;;;;;;;4.40;3.80;;;28.30;67.30;;;;;;5115192;28;20023;-83
2021/06/17 04:47:22;;;;;;;6.28;4.53;;;28.60;66.50;;;;;;5100751;28;20390;-81
2021/06/17 04:49:49;;;;;;;4.63;3.63;;;28.90;65.50;;;;;;5116289;28;20028;-81
2021/06/17 04:52:35;;;;;;;5.15;3.80;;;29.20;64.90;;;;;;5116365;28;20474;-79
2021/06/17 04:55:01;;;;;;;4.53;3.47;;;29.40;63.90;;;;;;5108301;28;20051;-79
2021/06/17 04:57:27;;;;;;;4.35;3.20;;;29.40;63.20;;;;;;5108352;27;20031;-79
2021/06/17 04:59:52;;;;;;;4.18;3.10;;;29.50;62.50;;;;;;5121348;28;20050;-80
2021/06/17 05:02:18;;;;;;;4.03;3.28;;;29.70;62.00;;;;;;5113400;28;20027;-80
2021/06/17 05:04:44;;;;;;;6.18;3.60;;;29.80;61.50;;;;;;5120037;28;20027;-81
2021/06/17 05:12:20;;;;;;;;;;;30.30;60.50;;;;;;5117660;28;20087;-76
2021/06/17 05:14:46;;;;;;;4.03;3.13;;;30.60;62.70;;;;;;5112631;27;20448;-76
2021/06/17 05:17:11;;;;;;;6.18;3.67;;;30.60;60.40;;;;;;5111854;28;20139;-76
2021/06/17 05:19:37;;;;;;;5.13;3.92;;;30.50;59.40;;;;;;5111495;28;20044;-74
2021/06/17 05:22:03;;;;;;;5.50;4.03;;;30.40;59.40;;;;;;5112190;28;20028;-75
2021/06/17 05:24:29;;;;;;;5.03;4.00;;;30.40;59.40;;;;;;5111042;28;20038;-77
2021/06/17 05:26:59;;;;;;;5.65;3.40;;;30.70;59.30;;;;;;5110787;28;20027;-76
2021/06/17 05:29:25;;;;;;;7.45;3.95;;;30.80;58.10;;;;;;5113925;28;20016;-75
2021/06/17 05:31:50;;;;;;;5.15;3.50;;;30.90;57.40;;;;;;5112907;28;20400;-74
2021/06/17 05:34:16;;;;;;;4.90;3.22;;;30.90;57.20;;;;;;5113010;28;20029;-75
2021/06/17 05:36:42;;;;;;;4.97;3.42;;;30.90;57.40;;;;;;5112776;28;20030;-76
2021/06/17 05:39:08;;;;;;;4.93;3.63;;;31.10;57.40;;;;;;5112758;28;20023;-76
2021/06/17 05:41:34;;;;;;;4.45;3.70;;;31.30;56.90;;;;;;5112763;28;20034;-75
2021/06/17 05:44:00;;;;;;;5.25;3.42;;;31.40;56.40;;;;;;5112347;28;20024;-76
2021/06/17 05:46:26;;;;;;;4.50;2.97;;;31.50;56.60;;;;;;5112379;28;20468;-76
2021/06/17 05:48:52;;;;;;;5.07;3.35;;;31.70;56.10;;;;;;5112733;28;20024;-75
2021/06/17 05:51:17;;;;;;;4.82;3.20;;;31.70;56.00;;;;;;5112310;28;20031;-75
2021/06/17 05:53:45;;;;;;;4.10;3.20;;;31.80;55.50;;;;;;5113147;28;20027;-75
2021/06/17 05:56:11;;;;;;;3.38;3.08;;;31.80;55.10;;;;;;5112615;28;20110;-75
2021/06/17 05:58:37;;;;;;;5.03;3.50;;;31.80;55.20;;;;;;5112703;28;20534;-75
2021/06/17 06:01:03;;;;;;;4.65;3.63;;;31.80;55.20;;;;;;5113248;28;20024;-76
2021/06/17 06:03:29;;;;;;;4.35;3.50;;;31.70;54.90;;;;;;5112830;28;20023;-75
2021/06/17 06:05:55;;;;;;;4.47;3.15;;;31.60;55.00;;;;;;5112714;28;20023;-76
2021/06/17 06:08:21;;;;;;;6.95;3.83;;;31.60;55.20;;;;;;5112225;27;20458;-76
2021/06/17 06:10:47;;;;;;;4.72;2.97;;;31.70;56.20;;;;;;5114536;28;20106;-76
2021/06/17 06:13:14;;;;;;;4.22;3.20;;;32.00;56.10;;;;;;5112944;28;20128;-76
2021/06/17 06:15:40;;;;;;;3.90;3.10;;;32.20;55.30;;;;;;5112213;28;20050;-76
2021/06/17 06:18:11;;;;;;;4.60;2.80;;;32.50;55.40;;;;;;5113228;28;20055;-76
2021/06/17 06:20:39;;;;;;;4.15;2.63;;;32.70;54.40;;;;;;5112407;28;20111;-77
2021/06/17 06:23:06;;;;;;;3.88;3.08;;;32.80;53.00;;;;;;5112953;28;20045;-76
2021/06/17 06:25:33;;;;;;;3.88;2.85;;;32.80;53.30;;;;;;5114424;28;20043;-76
2021/06/17 06:27:59;;;;;;;3.97;3.15;;;32.90;53.50;;;;;;5104282;28;20028;-76
2021/06/17 06:30:25;;;;;;;4.57;2.80;;;33.10;52.80;;;;;;5109877;28;20465;-77
2021/06/17 06:32:51;;;;;;;5.03;3.05;;;33.20;52.40;;;;;;5114582;28;20020;-76
2021/06/17 06:35:17;;;;;;;4.05;2.63;;;33.30;52.80;;;;;;5116124;28;20020;-76
2021/06/17 06:37:50;;;;;;;4.32;2.90;;;33.40;52.40;;;;;;5101938;28;20062;-77
2021/06/17 06:40:17;;;;;;;4.25;3.05;;;33.70;52.80;;;;;;5118983;28;20024;-76
2021/06/17 06:42:44;;;;;;;3.45;3.00;;;33.80;51.90;;;;;;5129154;28;20458;-76
2021/06/17 06:45:11;;;;;;;3.60;2.90;;;33.70;51.10;;;;;;5136221;28;20011;-75
2021/06/17 06:47:37;;;;;;;3.78;2.80;;;33.80;51.30;;;;;;5135218;28;20024;-76
2021/06/17 06:50:03;;;;;;;7.20;3.25;;;33.90;51.50;;;;;;5126914;28;20012;-77
2021/06/17 06:52:29;;;;;;;4.28;2.90;;;33.90;50.70;;;;;;5117489;28;20035;-77
2021/06/17 06:54:58;;;;;;;4.95;3.17;;;33.60;50.50;;;;;;5113404;28;20377;-77
2021/06/17 06:57:27;;;;;;;6.20;3.38;;;33.50;51.60;;;;;;5113688;28;20030;-77
2021/06/17 06:59:54;;;;;;;5.65;3.10;;;33.50;52.90;;;;;;5112201;28;20020;-77
2021/06/17 07:02:21;;;;;;;4.75;2.70;;;33.60;53.20;;;;;;5113153;28;20032;-77
2021/06/17 07:04:46;;;;;;;4.90;3.22;;;33.90;52.30;;;;;;5111970;28;20062;-77
2021/06/17 07:07:12;;;;;;;5.28;3.08;;;34.00;51.40;;;;;;5113429;28;20374;-77
2021/06/17 07:09:38;;;;;;;5.25;3.30;;;33.90;51.10;;;;;;5114206;28;20030;-77
2021/06/17 07:12:05;;;;;;;4.82;3.10;;;33.80;51.40;;;;;;5113248;28;20058;-77
2021/06/17 07:14:34;;;;;;;5.80;3.25;;;33.70;52.10;;;;;;5113990;28;20439;-78
2021/06/17 07:17:01;;;;;;;4.93;3.78;;;33.80;51.90;;;;;;5111417;28;20049;-77
2021/06/17 07:19:26;;;;;;;5.13;3.78;;;34.00;52.50;;;;;;5111678;28;20024;-77
2021/06/17 07:21:52;;;;;;;5.47;3.42;;;34.30;51.60;;;;;;5113084;28;20027;-78
2021/06/17 07:24:19;;;;;;;4.97;3.95;;;34.40;50.60;;;;;;5115176;28;20031;-76
2021/06/17 07:26:45;;;;;;;4.05;3.03;;;34.20;49.90;;;;;;5113876;28;20059;-77
2021/06/17 07:29:11;;;;;;;5.18;2.97;;;34.00;50.60;;;;;;5112670;28;20024;-77
2021/06/17 07:31:37;;;;;;;4.57;3.17;;;34.10;50.80;;;;;;5114276;28;20027;-76
2021/06/17 07:34:03;;;;;;;3.67;3.17;;;34.30;51.20;;;;;;5115341;28;20024;-77
2021/06/17 07:36:30;;;;;;;5.57;2.70;;;34.50;50.10;;;;;;5112071;28;20027;-78
2021/06/17 07:38:56;;;;;;;4.40;2.78;;;34.50;50.90;;;;;;5112997;28;20112;-77
2021/06/17 07:41:22;;;;;;;3.50;2.67;;;34.80;50.40;;;;;;5113090;28;20027;-77
2021/06/17 07:43:48;;;;;;;4.30;3.10;;;35.00;49.50;;;;;;5112918;28;20035;-76
2021/06/17 07:46:13;;;;;;;3.35;2.75;;;35.10;49.00;;;;;;5115106;28;20024;-77
2021/06/17 07:48:39;;;;;;;5.15;3.10;;;35.00;48.80;;;;;;5114203;28;20106;-77
2021/06/17 07:51:07;;;;;;;5.55;2.90;;;35.10;49.80;;;;;;5112467;28;20020;-77
2021/06/17 07:53:34;;;;;;;4.18;2.50;;;35.20;50.30;;;;;;5112173;28;20031;-78
2021/06/17 07:55:59;;;;;;;4.40;2.80;;;35.50;49.90;;;;;;5131146;27;20034;-78
2021/06/17 07:58:25;;;;;;;5.28;2.55;;;35.40;48.50;;;;;;5117018;28;20024;-78
2021/06/17 08:00:51;;;;;;;5.18;2.78;;;35.30;49.10;;;;;;5116810;28;20024;-76
2021/06/17 08:03:17;;;;;;;3.72;2.90;;;35.30;49.20;;;;;;5116422;28;20502;-75
2021/06/17 08:05:42;;;;;;;4.32;2.70;;;35.40;48.60;;;;;;5115860;28;20069;-78
2021/06/17 08:08:08;;;;;;;5.30;2.95;;;35.50;48.60;;;;;;5116461;28;20023;-76
2021/06/17 08:10:34;;;;;;;3.33;2.70;;;35.30;48.00;;;;;;5117446;28;20028;-76
2021/06/17 08:13:00;;;;;;;3.42;2.53;;;35.10;48.50;;;;;;5116251;28;20051;-76
2021/06/17 08:15:26;;;;;;;4.18;2.95;;;35.30;48.90;;;;;;5116540;28;20542;-77
2021/06/17 08:17:53;;;;;;;4.72;3.10;;;35.30;48.40;;;;;;5115472;28;20034;-76
2021/06/17 08:20:19;;;;;;;3.72;2.92;;;35.20;49.00;;;;;;5116405;28;20028;-76
2021/06/17 08:22:45;;;;;;;4.43;3.55;;;35.40;49.20;;;;;;5117307;28;20164;-76
2021/06/17 08:25:12;;;;;;;4.25;3.17;;;35.60;49.60;;;;;;5136250;27;20055;-77
2021/06/17 08:27:38;;;;;;;4.63;3.10;;;35.70;48.70;;;;;;5123127;28;20038;-75
2021/06/17 08:30:09;;;;;;;4.78;3.13;;;35.70;48.10;;;;;;5117354;28;20023;-75
2021/06/17 08:32:34;;;;;;;4.32;3.28;;;35.70;48.00;;;;;;5114212;28;20457;-76
2021/06/17 08:35:01;;;;;;;5.20;2.97;;;35.80;48.80;;;;;;5115831;28;20111;-76
2021/06/17 08:37:26;;;;;;;4.57;3.08;;;35.80;48.40;;;;;;5115519;28;20047;-75
2021/06/17 08:39:55;;;;;;;5.75;3.80;;;35.80;49.20;;;;;;5115708;28;20062;-75
2021/06/17 08:42:28;;;;;;;5.15;3.42;;;35.80;48.30;;;;;;5113884;28;20466;-76
2021/06/17 08:44:56;;;;;;;5.65;3.40;;;35.40;47.90;;;;;;5114582;28;20043;-76
2021/06/17 08:47:22;;;;;;;6.18;3.58;;;35.30;48.40;;;;;;5115273;28;20363;-76
2021/06/17 08:49:53;;;;;;;6.03;3.40;;;35.10;48.20;;;;;;5114335;28;20023;-76
2021/06/17 08:52:20;;;;;;;3.83;3.15;;;35.00;48.60;;;;;;5115799;28;20026;-75
2021/06/17 08:54:47;;;;;;;4.97;3.55;;;35.00;49.00;;;;;;5114497;28;20035;-75
2021/06/17 08:57:14;;;;;;;5.75;3.92;;;35.00;48.90;;;;;;5115346;28;20363;-75
2021/06/17 08:59:41;;;;;;;5.63;3.63;;;35.20;49.20;;;;;;5113621;28;20039;-75
2021/06/17 09:02:07;;;;;;;4.53;3.53;;;35.30;49.80;;;;;;5114935;28;20055;-76
2021/06/17 09:04:34;;;;;;;5.18;3.35;;;35.60;49.40;;;;;;5113375;28;20119;-76
2021/06/17 09:07:10;;;;;;;7.07;3.60;;;35.80;49.70;;;;;;5112696;27;20028;-77
2021/06/17 09:09:38;;;;;;;5.32;3.88;;;35.90;48.90;;;;;;5113914;28;20019;-76
2021/06/17 09:12:06;;;;;;;5.03;3.60;;;35.90;48.30;;;;;;5113293;28;20076;-77
2021/06/17 09:14:32;;;;;;;5.50;4.05;;;35.80;48.10;;;;;;5113296;28;20027;-76
2021/06/17 09:17:09;;;;;;;5.97;3.70;;;36.00;49.90;;;;;;5114277;27;20054;-77
2021/06/17 09:19:46;;;;;;;4.95;3.75;;;36.30;50.30;;;;;;5113762;28;20500;-76
2021/06/17 09:22:21;;;;;;;5.13;3.70;;;36.30;48.30;;;;;;5113068;28;20541;-76
2021/06/17 09:24:49;;;;;;;4.55;3.60;;;36.20;47.50;;;;;;5112942;28;20027;-76
2021/06/17 09:27:24;;;;;;;7.45;3.90;;;35.80;47.90;;;;;;5113105;28;20032;-76
2021/06/17 09:29:53;;;;;;;6.70;3.28;;;35.80;49.30;;;;;;5114868;27;20058;-77
2021/06/17 09:32:28;;;;;;;7.70;4.03;;;36.00;49.50;;;;;;5112832;28;20027;-76
2021/06/17 09:34:55;;;;;;;7.15;3.72;;;36.00;49.10;;;;;;5113192;28;20028;-76
2021/06/17 09:37:37;;;;;;;6.10;3.78;;;35.90;48.60;;;;;;5112635;28;20135;-77
2021/06/17 09:40:32;;;;;;;7.88;4.72;;;35.80;48.40;;;;;;5113062;28;20077;-76
2021/06/17 09:43:16;;;;;;;;;;;35.80;48.30;;;;;;5101028;28;20030;-76
2021/06/17 09:45:55;;;;;;;7.22;3.95;;;35.70;48.70;;;;;;5113699;28;20324;-76
2021/06/17 09:48:39;;;;;;;7.15;4.45;;;35.60;48.60;;;;;;5114406;28;20385;-77
2021/06/17 09:51:38;;;;;;;5.85;3.92;;;35.80;48.00;;;;;;5112523;28;20019;-76
2021/06/17 09:54:13;;;;;;;5.03;4.13;;;35.90;47.70;;;;;;5113971;28;20497;-77
2021/06/17 09:56:39;;;;;;;6.50;4.30;;;36.00;47.70;;;;;;5100689;28;20026;-76
2021/06/17 09:59:06;;;;;;;5.47;4.25;;;36.10;47.50;;;;;;5114064;28;20024;-76
2021/06/17 10:01:37;;;;;;;7.53;4.82;;;36.00;48.00;;;;;;5113671;28;20020;-77
2021/06/17 10:04:23;;;;;;;8.30;4.50;;;36.00;47.80;;;;;;5112850;28;20137;-77
2021/06/17 10:06:50;;;;;;;8.40;4.32;;;36.00;47.30;;;;;;5113106;28;20040;-76
2021/06/17 10:09:19;;;;;;;6.35;4.30;;;36.10;47.30;;;;;;5112458;28;20024;-77
2021/06/17 10:11:46;;;;;;;6.50;4.95;;;35.90;47.10;;;;;;5113299;28;20020;-76
2021/06/17 10:14:12;;;;;;;6.32;4.57;;;35.70;47.70;;;;;;5112427;28;20462;-76
2021/06/17 10:16:42;;;;;;;7.15;4.80;;;35.70;47.90;;;;;;5113510;28;20040;-76
2021/06/17 10:19:12;;;;;;;5.25;4.63;;;35.60;47.80;;;;;;5115461;27;20069;-76
2021/06/17 10:21:37;;;;;;;6.30;4.40;;;35.50;48.50;;;;;;5112749;28;20034;-76
2021/06/17 10:24:21;;;;;;;6.38;4.38;;;35.30;48.20;;;;;;5111916;28;20028;-76
2021/06/17 10:26:48;;;;;;;6.32;4.68;;;35.10;48.60;;;;;;5113281;28;20026;-76
2021/06/17 10:29:31;;;;;;;8.05;5.00;;;34.90;48.60;;;;;;5113458;28;20035;-76
2021/06/17 10:31:58;;;;;;;8.20;5.07;;;34.70;49.00;;;;;;5113536;28;20411;-76
2021/06/17 10:34:29;;;;;;;7.22;4.50;;;34.70;50.20;;;;;;5099079;28;20084;-75
2021/06/17 10:37:15;;;;;;;5.95;4.35;;;35.00;50.20;;;;;;5112092;28;20032;-76
2021/06/17 10:39:44;;;;;;;6.47;4.63;;;35.20;48.70;;;;;;5100789;28;20473;-77
2021/06/17 10:42:13;;;;;;;5.80;4.85;;;35.20;48.30;;;;;;5113572;28;20488;-76
2021/06/17 10:44:57;;;;;;;5.68;4.50;;;35.20;48.20;;;;;;5099252;28;20030;-76
2021/06/17 10:47:39;;;;;;;7.15;4.63;;;35.20;49.10;;;;;;5111875;28;20054;-75
2021/06/17 10:50:08;;;;;;;8.32;5.10;;;35.30;48.70;;;;;;5111893;28;20028;-77
2021/06/17 10:52:35;;;;;;;7.72;4.85;;;35.10;48.90;;;;;;5111001;28;20027;-78
2021/06/17 10:55:15;;;;;;;9.88;5.38;;;35.10;48.80;;;;;;5111948;28;20024;-76
2021/06/17 10:57:50;;;;;;;10.07;5.20;;;35.00;49.20;;;;;;5111501;28;20068;-76
2021/06/17 11:00:23;;;;;;;12.65;5.03;;;35.20;49.40;;;;;;5113249;28;20020;-76
2021/06/17 11:02:54;;;;;;;9.98;4.93;;;35.00;49.10;;;;;;5112122;28;20032;-77
2021/06/17 11:05:39;;;;;;;7.47;4.97;;;34.70;49.20;;;;;;5113060;28;20023;-76
2021/06/17 11:08:20;;;;;;;7.13;4.82;;;34.30;49.50;;;;;;5111930;28;20031;-76
2021/06/17 11:10:47;;;;;;;7.28;4.50;;;34.10;50.80;;;;;;5098639;28;20866;-76
2021/06/17 11:13:37;;;;;;;6.35;4.90;;;33.80;51.00;;;;;;5111437;28;20031;-77
2021/06/17 11:16:05;;;;;;;5.88;4.95;;;33.50;51.50;;;;;;5100313;28;20079;-76
2021/06/17 11:23:49;;;;;;;6.05;5.03;;;33.30;53.40;;;;;;5112196;28;20043;-76
2021/06/17 11:26:44;;;;;;;8.05;5.03;;;33.20;52.70;;;;;;5111849;28;20032;-76
2021/06/17 11:29:12;;;;;;;7.60;4.60;;;33.00;52.90;;;;;;5112420;28;20027;-76
2021/06/17 11:31:42;;;;;;;9.95;4.93;;;32.80;52.10;;;;;;5115418;28;20054;-75
2021/06/17 11:34:09;;;;;;;7.75;5.03;;;32.70;52.50;;;;;;5114862;28;20064;-76
2021/06/17 11:37:01;;;;;;;6.97;4.57;;;32.60;52.50;;;;;;5115259;28;20024;-76
2021/06/17 11:39:30;;;;;;;7.90;5.25;;;32.40;53.00;;;;;;5094129;28;20339;-75
2021/06/17 11:41:58;;;;;;;6.00;4.28;;;32.20;54.00;;;;;;5115047;28;20042;-76
2021/06/17 11:44:26;;;;;;;8.85;5.20;;;32.20;53.90;;;;;;5116022;28;20477;-76
2021/06/17 11:47:07;;;;;;;9.45;5.95;;;32.20;54.20;;;;;;5115644;28;20458;-75
2021/06/17 11:49:44;;;;;;;5.80;4.57;;;32.20;54.40;;;;;;5116260;28;20019;-75
2021/06/17 11:52:17;;;;;;;6.18;4.28;;;32.20;53.90;;;;;;5115327;28;20028;-75
2021/06/17 11:54:48;;;;;;;6.35;4.70;;;31.90;53.70;;;;;;5114463;28;20023;-75
2021/06/17 11:57:15;;;;;;;6.10;4.60;;;31.80;53.60;;;;;;5116433;28;20085;-75
2021/06/17 11:59:48;;;;;;;6.05;4.40;;;31.60;54.00;;;;;;5114813;28;20030;-75
2021/06/17 12:02:25;;;;;;;7.20;4.90;;;31.40;54.40;;;;;;5114982;28;20042;-75
2021/06/17 12:04:55;;;;;;;6.47;4.65;;;31.20;54.80;;;;;;5114229;28;20028;-75
2021/06/17 12:07:25;;;;;;;6.38;4.50;;;31.10;55.40;;;;;;5114824;28;20028;-75
2021/06/17 12:09:52;;;;;;;6.57;4.50;;;31.20;55.70;;;;;;5116498;27;20052;-75
2021/06/17 12:12:19;;;;;;;6.65;4.30;;;31.20;56.40;;;;;;5102128;28;20038;-75
2021/06/17 12:14:53;;;;;;;7.25;4.47;;;31.20;55.80;;;;;;5115446;28;20879;-76
2021/06/17 12:17:36;;;;;;;7.68;4.85;;;31.20;56.20;;;;;;5114155;28;20086;-75
2021/06/17 12:20:19;;;;;;;5.88;4.70;;;31.30;56.70;;;;;;5114504;28;20032;-76
2021/06/17 12:22:56;;;;;;;6.47;4.45;;;31.30;56.30;;;;;;5102193;28;20816;-75
2021/06/17 12:25:24;;;;;;;6.10;4.53;;;31.10;56.20;;;;;;5114209;28;20035;-76
2021/06/17 12:27:50;;;;;;;7.82;4.60;;;30.90;56.00;;;;;;5114343;28;20107;-75
2021/06/17 12:30:28;;;;;;;5.55;4.72;;;30.80;56.00;;;;;;5114156;28;20458;-75
2021/06/17 12:32:56;;;;;;;8.73;4.90;;;30.80;56.10;;;;;;5103089;28;20043;-76
2021/06/17 12:35:24;;;;;;;5.28;4.63;;;30.90;56.20;;;;;;5115439;28;20401;-75
2021/06/17 12:37:50;;;;;;;7.47;5.18;;;30.90;56.20;;;;;;5100298;28;20023;-75
2021/06/17 12:40:34;;;;;;;7.78;4.88;;;30.70;56.60;;;;;;5113224;28;20031;-76
2021/06/17 12:43:21;;;;;;;11.32;5.45;;;30.70;56.90;;;;;;5100973;28;20097;-76
2021/06/17 12:46:08;;;;;;;11.90;5.55;;;30.60;56.90;;;;;;5114077;28;20118;-76
2021/06/17 12:54:10;;;;;;;7.13;5.00;;;30.80;58.00;;;;;;5115344;28;20042;-75
2021/06/17 12:56:52;;;;;;;6.80;4.97;;;30.90;57.40;;;;;;5100227;28;20421;-76
2021/06/17 12:59:33;;;;;;;7.15;5.45;;;30.70;57.50;;;;;;5115313;28;20028;-76
2021/06/17 13:01:59;;;;;;;10.82;7.20;;;30.60;57.70;;;;;;5114106;28;20390;-76
2021/06/17 13:04:25;;;;;;;7.57;5.30;;;30.50;57.80;;;;;;5113220;28;20031;-76
2021/06/17 13:06:50;;;;;;;9.18;5.10;;;30.50;58.10;;;;;;5114638;28;20020;-76
2021/06/17 13:09:19;;;;;;;8.68;6.40;;;30.40;58.50;;;;;;5113673;28;20023;-75
2021/06/17 13:11:45;;;;;;;8.52;5.10;;;30.40;58.70;;;;;;5113133;28;20096;-75
2021/06/17 13:14:10;;;;;;;12.50;5.57;;;30.40;58.10;;;;;;5113287;28;20072;-76
2021/06/17 13:16:36;;;;;;;12.90;5.80;;;30.30;57.70;;;;;;5113226;28;20039;-76